Time;durP1;ratioP1;P1;durP2;ratioP2;P2;SDS_P1;SDS_P2;PMS_P1;PMS_P2;Temp;Humidity;BMP_temperature;BMP_pressure;BME280_temperature;BME280_humidity;BME280_pressure;Samples;Min_cycle;Max_cycle;Signal;HPM_P1;HPM_P2
2023/07/17 00:01:34;;;;;;;21.10;7.30;;;;;;;25.52;64.14;98977.99;136115;1274;25230;-73
2023/07/17 00:04:37;;;;;;;9.00;3.40;;;;;;;25.50;64.75;98974.33;136021;1274;23154;-76
2023/07/17 00:07:40;;;;;;;18.10;6.60;;;;;;;25.49;64.64;98979.56;136096;1274;22523;-73
2023/07/17 00:10:42;;;;;;;19.00;7.90;;;;;;;25.44;63.85;98983.27;136116;1274;22551;-73
2023/07/17 00:13:45;;;;;;;17.50;6.50;;;;;;;25.39;63.65;98987.43;136085;1274;22534;-71
2023/07/17 00:16:48;;;;;;;17.70;7.10;;;;;;;25.35;63.57;98982.30;136114;1274;22570;-77
2023/07/17 00:19:50;;;;;;;17.60;6.60;;;;;;;25.27;63.96;98978.27;136109;1274;22527;-71
2023/07/17 00:22:53;;;;;;;22.00;7.90;;;;;;;24.87;66.47;98982.28;136137;1274;22514;-72
2023/07/17 00:25:55;;;;;;;18.00;7.30;;;;;;;24.84;67.40;98976.25;136120;1274;22562;-71
2023/07/17 00:28:58;;;;;;;19.90;7.40;;;;;;;24.92;66.80;98974.40;136015;1274;22539;-71
2023/07/17 00:32:00;;;;;;;19.20;7.50;;;;;;;24.89;67.03;98966.84;136123;1253;24270;-71
2023/07/17 00:35:03;;;;;;;20.20;8.40;;;;;;;24.87;67.66;98967.27;136095;1274;24243;-71
2023/07/17 00:38:05;;;;;;;19.10;7.20;;;;;;;24.93;67.88;98980.72;135937;1274;22613;-71
2023/07/17 00:41:07;;;;;;;19.70;7.90;;;;;;;24.87;67.66;98984.79;136179;1274;22629;-71
2023/07/17 00:44:10;;;;;;;17.90;7.10;;;;;;;24.80;67.69;98976.54;136172;1257;22691;-76
2023/07/17 00:47:12;;;;;;;20.70;7.40;;;;;;;24.87;66.65;98980.67;136130;1274;25217;-72
2023/07/17 00:50:15;;;;;;;20.50;8.20;;;;;;;24.84;66.95;98979.25;136126;1274;22621;-73
2023/07/17 00:53:18;;;;;;;21.00;8.00;;;;;;;24.74;67.40;98980.66;136102;1274;22539;-72
2023/07/17 00:56:21;;;;;;;18.90;7.50;;;;;;;24.62;67.68;98981.36;136133;1253;22532;-73
2023/07/17 00:59:23;;;;;;;20.30;7.80;;;;;;;24.54;67.92;98971.98;136171;1274;22528;-75
2023/07/17 01:02:26;;;;;;;19.40;7.80;;;;;;;24.47;68.85;98966.11;136112;1274;22523;-76
2023/07/17 01:05:28;;;;;;;20.90;8.10;;;;;;;24.35;69.60;98965.63;136137;1274;22536;-75
2023/07/17 01:08:31;;;;;;;20.20;7.60;;;;;;;24.26;70.62;98965.26;136065;1274;22516;-77
2023/07/17 01:11:33;;;;;;;21.70;8.00;;;;;;;24.16;71.32;98964.13;136149;1254;22639;-73
2023/07/17 01:14:36;;;;;;;20.40;8.00;;;;;;;24.21;71.02;98960.59;136135;1274;22639;-75
2023/07/17 01:17:38;;;;;;;18.80;7.50;;;;;;;24.67;67.50;98959.23;136181;1255;22638;-74
2023/07/17 01:20:40;;;;;;;19.50;7.70;;;;;;;24.34;69.26;98956.82;136128;1274;23434;-75
2023/07/17 01:23:44;;;;;;;20.00;7.80;;;;;;;24.30;69.45;98952.96;136143;1274;24396;-73
2023/07/17 01:26:46;;;;;;;19.40;8.90;;;;;;;24.35;69.62;98950.86;136137;1256;22514;-79
2023/07/17 01:29:48;;;;;;;22.10;8.50;;;;;;;24.48;68.98;98945.19;136086;1274;22520;-74
2023/07/17 01:32:51;;;;;;;22.40;8.50;;;;;;;24.41;69.14;98946.15;136126;1257;24377;-80
2023/07/17 01:35:53;;;;;;;22.20;8.10;;;;;;;24.50;69.30;98951.20;136179;1257;22516;-73
2023/07/17 01:38:56;;;;;;;20.00;7.60;;;;;;;24.53;68.98;98951.74;136126;1274;22602;-74
2023/07/17 01:41:58;;;;;;;20.60;7.40;;;;;;;24.91;65.82;98946.09;136146;1274;22520;-73
2023/07/17 01:45:01;;;;;;;21.80;7.80;;;;;;;24.87;65.58;98946.05;136192;1274;22535;-72
2023/07/17 01:48:03;;;;;;;21.80;8.10;;;;;;;24.53;66.89;98945.16;136178;1257;22627;-73
2023/07/17 01:51:05;;;;;;;20.20;7.80;;;;;;;24.26;68.24;98955.86;136128;1274;25448;-72
2023/07/17 01:54:08;;;;;;;19.30;7.30;;;;;;;24.16;69.44;98966.96;136166;1274;22549;-72
2023/07/17 01:57:10;;;;;;;18.30;7.70;;;;;;;24.13;69.69;98964.65;136180;1254;22539;-73
2023/07/17 02:00:13;;;;;;;19.80;8.00;;;;;;;24.10;68.87;98961.39;136134;1274;22528;-73
2023/07/17 02:03:16;;;;;;;19.10;8.30;;;;;;;24.00;70.26;98961.31;135926;1274;22534;-77
2023/07/17 02:06:18;;;;;;;20.90;7.90;;;;;;;24.05;69.83;98958.23;136138;1274;22663;-71
2023/07/17 02:09:21;;;;;;;19.30;7.70;;;;;;;24.00;69.54;98962.02;136167;1274;22517;-74
2023/07/17 02:12:24;;;;;;;25.60;7.80;;;;;;;23.87;70.04;98970.29;135970;1254;22527;-73
2023/07/17 02:15:26;;;;;;;22.10;7.00;;;;;;;23.74;71.29;98978.89;136160;1274;22510;-76
2023/07/17 02:18:30;;;;;;;18.20;7.50;;;;;;;23.79;71.08;98982.73;136144;1274;22531;-78
2023/07/17 02:21:33;;;;;;;20.40;7.40;;;;;;;23.89;69.72;98983.80;135941;1257;22563;-80
2023/07/17 02:24:35;;;;;;;21.80;7.90;;;;;;;23.78;68.74;98981.16;136127;1274;22527;-74
2023/07/17 02:27:37;;;;;;;21.40;7.60;;;;;;;23.74;69.45;98984.89;135942;1254;22617;-72
2023/07/17 02:30:40;;;;;;;19.10;7.90;;;;;;;23.72;69.99;98982.81;136097;1274;22764;-76
2023/07/17 02:33:42;;;;;;;23.70;8.90;;;;;;;23.78;69.97;98983.89;136146;1274;22539;-75
2023/07/17 02:36:45;;;;;;;18.90;7.10;;;;;;;23.93;69.16;98988.45;136126;1274;22530;-76
2023/07/17 02:39:47;;;;;;;19.00;7.60;;;;;;;23.79;70.07;98987.91;136127;1274;22540;-73
2023/07/17 02:42:50;;;;;;;19.00;7.60;;;;;;;23.77;70.14;98990.63;136138;1274;22520;-79
2023/07/17 02:45:52;;;;;;;17.60;7.20;;;;;;;23.77;70.29;98998.90;136197;1253;22645;-74
2023/07/17 02:48:54;;;;;;;21.70;8.00;;;;;;;23.96;69.53;99003.39;136155;1274;22516;-72
2023/07/17 02:51:57;;;;;;;18.20;6.70;;;;;;;24.06;68.21;99003.33;136154;1274;22676;-77
2023/07/17 02:54:59;;;;;;;18.00;6.90;;;;;;;24.17;67.53;99005.80;136147;1256;22537;-72
2023/07/17 02:58:02;;;;;;;22.60;6.80;;;;;;;24.37;66.28;99003.17;135918;1274;22540;-75
2023/07/17 03:01:04;;;;;;;21.40;7.60;;;;;;;24.33;66.41;98989.95;136095;1274;22523;-72
2023/07/17 03:04:07;;;;;;;19.80;7.70;;;;;;;24.28;67.49;98983.48;135952;1274;22575;-77
2023/07/17 03:07:09;;;;;;;21.30;8.10;;;;;;;24.31;68.64;98975.42;136110;1274;22590;-71
2023/07/17 03:10:12;;;;;;;24.30;8.10;;;;;;;24.43;69.07;98956.73;136115;1274;22537;-71
2023/07/17 03:13:14;;;;;;;20.80;8.20;;;;;;;24.69;68.88;98953.52;136161;1274;22527;-72
2023/07/17 03:16:16;;;;;;;19.30;7.60;;;;;;;24.92;68.49;98960.23;135937;1254;22543;-72
2023/07/17 03:19:19;;;;;;;20.20;8.50;;;;;;;25.03;68.71;98973.61;136131;1256;22526;-80
2023/07/17 03:22:21;;;;;;;21.10;8.30;;;;;;;25.01;70.17;98989.45;136180;1275;26465;-73
2023/07/17 03:25:24;;;;;;;22.10;8.70;;;;;;;24.99;69.09;98991.79;136172;1274;24397;-73
2023/07/17 03:28:26;;;;;;;21.40;8.80;;;;;;;25.04;67.76;98984.20;136085;1274;25245;-76
2023/07/17 03:31:29;;;;;;;19.80;7.20;;;;;;;24.84;68.91;98980.85;136136;1273;22516;-74
2023/07/17 03:34:32;;;;;;;23.30;7.50;;;;;;;24.48;71.47;98978.50;135986;1256;22514;-74
2023/07/17 03:37:34;;;;;;;20.50;8.40;;;;;;;24.71;70.86;98975.45;135948;1259;22740;-76
2023/07/17 03:40:37;;;;;;;21.40;8.90;;;;;;;24.67;71.33;98979.48;135973;1274;23503;-78
2023/07/17 03:43:40;;;;;;;22.90;9.00;;;;;;;24.73;70.99;98983.72;135981;1257;24231;-77
2023/07/17 03:46:42;;;;;;;21.30;7.90;;;;;;;24.74;71.43;98993.80;135958;1254;22519;-72
2023/07/17 03:49:45;;;;;;;19.90;7.30;;;;;;;24.74;70.94;98997.61;136171;1274;22636;-71
2023/07/17 03:52:48;;;;;;;23.90;7.60;;;;;;;24.86;70.58;98997.85;136151;1274;22533;-70
2023/07/17 03:55:50;;;;;;;20.90;7.90;;;;;;;25.20;70.94;99000.36;136149;1274;24438;-71
2023/07/17 03:58:53;;;;;;;21.00;8.60;;;;;;;25.51;71.40;99001.19;136146;1274;22520;-73
2023/07/17 04:01:55;;;;;;;26.60;10.80;;;;;;;25.67;71.24;99012.68;136099;1274;22544;-69
2023/07/17 04:04:58;;;;;;;22.20;9.60;;;;;;;25.66;71.46;99018.61;136159;1274;22942;-69
2023/07/17 04:08:01;;;;;;;23.20;9.40;;;;;;;25.81;72.15;99024.68;136071;1274;22555;-68
2023/07/17 04:11:04;;;;;;;27.30;10.60;;;;;;;26.01;71.67;99027.74;136146;1274;22623;-69
2023/07/17 04:14:08;;;;;;;25.70;10.10;;;;;;;26.13;72.04;99027.95;136037;1274;23213;-67
2023/07/17 04:17:11;;;;;;;21.10;9.70;;;;;;;26.23;72.13;99031.89;136033;1274;22529;-69
2023/07/17 04:20:14;;;;;;;20.80;10.30;;;;;;;26.39;71.72;99033.48;136173;1274;22550;-69
2023/07/17 04:23:17;;;;;;;22.90;10.20;;;;;;;26.51;71.61;99033.55;136152;1274;22528;-68
2023/07/17 04:26:19;;;;;;;25.80;10.10;;;;;;;26.62;71.57;99036.61;136091;1272;22516;-67
2023/07/17 04:29:22;;;;;;;23.50;9.50;;;;;;;26.68;71.04;99043.66;136077;1267;22543;-77
2023/07/17 04:32:25;;;;;;;22.40;9.10;;;;;;;26.64;71.38;99054.28;136117;1269;22526;-70
2023/07/17 04:35:27;;;;;;;23.10;9.00;;;;;;;26.65;71.63;99066.48;136109;1267;22617;-67
2023/07/17 04:38:29;;;;;;;25.10;8.70;;;;;;;26.65;72.38;99072.02;136038;1269;22542;-68
2023/07/17 04:41:32;;;;;;;21.70;8.90;;;;;;;26.78;72.47;99069.42;136113;1267;22533;-72
2023/07/17 04:44:35;;;;;;;24.10;9.70;;;;;;;26.98;71.76;99069.73;136057;1267;22527;-68
2023/07/17 04:47:37;;;;;;;23.70;9.50;;;;;;;27.16;70.78;99071.48;136074;1270;22530;-74
2023/07/17 04:50:40;;;;;;;22.20;10.00;;;;;;;26.90;71.73;99079.59;136097;1267;22648;-78
2023/07/17 04:53:43;;;;;;;20.80;10.20;;;;;;;27.04;72.30;99082.66;136086;1272;22527;-80
2023/07/17 04:56:45;;;;;;;22.30;9.70;;;;;;;27.63;69.16;99082.70;136058;1267;23131;-70
2023/07/17 04:59:48;;;;;;;21.70;9.70;;;;;;;27.52;68.88;99077.70;136069;1256;23010;-77
2023/07/17 05:02:50;;;;;;;21.10;9.60;;;;;;;27.63;69.04;99067.13;136099;1267;22516;-78
2023/07/17 05:05:53;;;;;;;21.10;9.00;;;;;;;27.82;68.68;99060.85;136048;1267;22509;-68
2023/07/17 05:08:55;;;;;;;35.80;9.30;;;;;;;28.00;67.76;99063.05;136087;1257;22527;-69
2023/07/17 05:11:58;;;;;;;23.20;9.20;;;;;;;28.34;66.57;99058.66;136099;1273;22571;-72
2023/07/17 05:15:00;;;;;;;21.60;9.10;;;;;;;28.46;65.81;99053.74;135850;1274;22629;-66
2023/07/17 05:18:03;;;;;;;20.00;8.70;;;;;;;28.66;64.69;99050.05;135916;1274;22543;-67
2023/07/17 05:21:05;;;;;;;19.90;8.80;;;;;;;28.41;65.95;99050.48;135945;1274;22527;-66
2023/07/17 05:24:08;;;;;;;19.10;8.30;;;;;;;28.80;63.61;99045.55;135940;1275;25230;-66
2023/07/17 05:27:10;;;;;;;20.50;9.30;;;;;;;28.57;63.57;99039.58;135920;1274;22626;-66
2023/07/17 05:30:13;;;;;;;22.90;9.50;;;;;;;28.32;65.00;99038.57;136098;1274;26919;-67
2023/07/17 05:33:15;;;;;;;22.20;9.20;;;;;;;28.16;66.13;99039.42;136200;1275;22516;-66
2023/07/17 05:36:17;;;;;;;22.50;10.50;;;;;;;28.20;66.81;99045.70;136094;1274;22523;-67
2023/07/17 05:39:20;;;;;;;23.10;9.40;;;;;;;28.25;66.41;99063.57;136172;1274;22527;-65
2023/07/17 05:42:22;;;;;;;23.10;9.00;;;;;;;28.17;66.63;99078.30;136178;1274;22527;-66
2023/07/17 05:45:25;;;;;;;21.90;9.80;;;;;;;28.06;66.98;99093.94;136163;1274;22589;-66
2023/07/17 05:48:27;;;;;;;23.20;9.30;;;;;;;28.15;66.81;99102.27;135996;1274;22540;-65
2023/07/17 05:51:30;;;;;;;20.80;9.20;;;;;;;28.30;65.70;99120.64;135867;1274;22592;-66
2023/07/17 05:54:32;;;;;;;21.90;8.70;;;;;;;28.14;66.33;99138.80;136163;1274;22532;-66
2023/07/17 05:57:35;;;;;;;20.30;8.70;;;;;;;28.10;66.54;99175.94;136133;1253;22545;-70
2023/07/17 06:00:37;;;;;;;22.10;9.40;;;;;;;27.64;68.56;99205.84;136124;1274;22550;-77
2023/07/17 06:03:40;;;;;;;20.40;8.70;;;;;;;27.38;70.32;99203.18;136177;1274;22516;-76
2023/07/17 06:06:42;;;;;;;23.00;8.30;;;;;;;27.26;71.38;99216.13;136127;1261;24186;-68
2023/07/17 06:09:45;;;;;;;19.20;7.40;;;;;;;27.08;72.61;99220.77;136144;1274;22547;-67
2023/07/17 06:12:47;;;;;;;20.00;7.30;;;;;;;27.08;73.17;99227.87;136152;1274;22571;-68
2023/07/17 06:15:51;;;;;;;19.30;7.00;;;;;;;26.99;75.09;99235.64;136074;1254;22541;-75
2023/07/17 06:18:53;;;;;;;19.90;7.10;;;;;;;26.80;77.92;99239.53;136152;1251;24351;-68
2023/07/17 06:21:56;;;;;;;18.40;7.00;;;;;;;26.86;77.43;99237.62;136123;1274;22526;-67
2023/07/17 06:25:01;;;;;;;18.90;6.50;;;;;;;26.82;78.32;99250.43;136128;1274;25558;-66
2023/07/17 06:28:04;;;;;;;19.90;6.50;;;;;;;26.28;87.34;99265.08;135848;1274;22539;-66
2023/07/17 06:31:07;;;;;;;17.50;6.00;;;;;;;25.86;94.31;99255.09;135994;1275;22516;-66
2023/07/17 06:34:13;;;;;;;19.10;6.20;;;;;;;25.80;97.33;99266.02;136055;1274;22543;-67
2023/07/17 06:37:15;;;;;;;17.40;6.20;;;;;;;25.81;95.68;99256.91;131991;1274;5410346;-66
2023/07/17 06:40:17;;;;;;;18.00;6.10;;;;;;;25.73;98.13;99253.14;136127;1274;22539;-67
2023/07/17 06:43:20;;;;;;;19.20;6.40;;;;;;;25.91;93.09;99249.77;136164;1274;22533;-75
2023/07/17 06:46:23;;;;;;;19.70;6.60;;;;;;;26.26;86.90;99238.44;136107;1257;22516;-66
2023/07/17 06:49:25;;;;;;;19.10;6.70;;;;;;;26.34;86.03;99227.74;136155;1274;23250;-66
2023/07/17 06:52:28;;;;;;;20.70;6.90;;;;;;;26.55;84.38;99210.98;136138;1274;22516;-66
2023/07/17 06:55:30;;;;;;;21.50;7.10;;;;;;;26.76;83.12;99195.52;136144;1274;22551;-68
2023/07/17 06:58:33;;;;;;;22.50;8.60;;;;;;;26.87;81.85;99167.59;135901;1274;22535;-67
2023/07/17 07:01:35;;;;;;;21.50;7.00;;;;;;;26.93;81.40;99141.27;136141;1274;25474;-67
2023/07/17 07:04:38;;;;;;;19.00;7.00;;;;;;;26.77;82.51;99105.88;136089;1274;22619;-69
2023/07/17 07:07:40;;;;;;;19.40;7.20;;;;;;;26.77;81.20;99043.84;136122;1274;22518;-74
2023/07/17 07:10:43;;;;;;;17.10;6.00;;;;;;;26.77;80.50;99021.83;136121;1274;22531;-76
2023/07/17 07:13:46;;;;;;;18.10;6.20;;;;;;;26.68;80.00;99000.30;136126;1275;22514;-68
2023/07/17 07:16:48;;;;;;;17.70;5.90;;;;;;;26.64;79.42;98991.27;136179;1274;22520;-68
2023/07/17 07:19:51;;;;;;;18.10;6.00;;;;;;;26.75;77.86;98976.15;136119;1274;22636;-67
2023/07/17 07:22:53;;;;;;;17.80;5.50;;;;;;;26.78;76.44;98965.88;136134;1274;22629;-75
2023/07/17 07:25:55;;;;;;;18.10;6.10;;;;;;;26.75;76.15;98972.15;136125;1274;22517;-68
2023/07/17 07:28:58;;;;;;;18.00;5.60;;;;;;;26.76;75.59;98986.94;136157;1274;25427;-67
2023/07/17 07:32:00;;;;;;;17.50;5.80;;;;;;;26.43;77.45;99005.40;136147;1257;24381;-72
2023/07/17 07:35:03;;;;;;;18.10;5.80;;;;;;;26.46;77.50;99011.46;136185;1274;22547;-67
2023/07/17 07:38:06;;;;;;;18.60;6.30;;;;;;;26.54;77.06;99008.35;136095;1274;22520;-65
2023/07/17 07:41:09;;;;;;;18.70;6.40;;;;;;;26.78;77.11;99010.23;136152;1274;22517;-74
2023/07/17 07:44:12;;;;;;;19.00;6.40;;;;;;;27.03;75.90;99000.77;136120;1257;23261;-67
2023/07/17 07:47:14;;;;;;;19.90;6.90;;;;;;;27.02;75.73;98995.77;135995;1274;22515;-64
2023/07/17 07:50:17;;;;;;;18.20;6.10;;;;;;;27.08;75.97;99003.02;136140;1274;22523;-65
2023/07/17 07:53:19;;;;;;;19.30;6.20;;;;;;;27.18;76.02;99005.09;136141;1275;22501;-75
2023/07/17 07:56:22;;;;;;;18.60;6.40;;;;;;;27.49;74.51;99004.92;136160;1272;22545;-65
2023/07/17 07:59:24;;;;;;;18.30;6.00;;;;;;;27.72;74.56;99012.25;135988;1274;22514;-66
2023/07/17 08:02:27;;;;;;;17.20;6.10;;;;;;;28.06;73.70;99010.88;136042;1274;22523;-71
2023/07/17 08:05:29;;;;;;;16.90;5.90;;;;;;;28.00;74.70;99015.60;135957;1274;24209;-76
2023/07/17 08:08:32;;;;;;;16.50;6.20;;;;;;;28.61;70.99;99014.90;136064;1275;22561;-77
2023/07/17 08:11:34;;;;;;;20.30;6.90;;;;;;;28.98;68.15;99024.59;136086;1275;22533;-72
2023/07/17 08:14:37;;;;;;;18.40;6.40;;;;;;;28.32;71.95;99033.30;135999;1275;22527;-68
2023/07/17 08:17:39;;;;;;;18.80;6.50;;;;;;;28.25;70.89;99037.80;136077;1257;22555;-71
2023/07/17 08:20:42;;;;;;;17.70;6.20;;;;;;;28.00;71.74;99045.14;136088;1275;22532;-77
2023/07/17 08:23:46;;;;;;;18.80;6.20;;;;;;;27.96;72.71;99043.08;136001;1276;22533;-72
2023/07/17 08:26:49;;;;;;;16.70;6.30;;;;;;;28.14;72.89;99043.30;136104;1275;22539;-77
2023/07/17 08:29:52;;;;;;;18.20;6.20;;;;;;;28.39;71.24;99053.16;136066;1275;22632;-76
2023/07/17 08:32:55;;;;;;;20.50;6.30;;;;;;;28.60;71.39;99053.41;135995;1275;26524;-75
2023/07/17 08:35:58;;;;;;;18.00;6.00;;;;;;;28.85;68.02;99055.41;136090;1275;22543;-68
2023/07/17 08:39:01;;;;;;;18.00;6.00;;;;;;;28.78;68.17;99057.19;136049;1275;22571;-74
2023/07/17 08:42:04;;;;;;;20.10;6.30;;;;;;;28.93;67.31;99048.59;136069;1275;22563;-74
2023/07/17 08:45:07;;;;;;;20.60;6.20;;;;;;;29.13;66.66;99042.90;136023;1275;22541;-73
2023/07/17 08:48:10;;;;;;;19.30;6.70;;;;;;;29.18;67.16;99048.67;136027;1275;22520;-75
2023/07/17 08:51:12;;;;;;;22.40;7.20;;;;;;;29.32;67.48;99049.02;136055;1256;24277;-75
2023/07/17 08:54:15;;;;;;;20.60;8.10;;;;;;;29.33;67.17;99060.61;136018;1263;22527;-73
2023/07/17 08:57:18;;;;;;;19.50;8.10;;;;;;;29.63;66.42;99060.64;136019;1275;22532;-71
2023/07/17 09:00:23;;;;;;;22.60;11.00;;;;;;;29.46;67.15;99062.05;136078;1275;22798;-74
2023/07/17 09:03:25;;;;;;;21.30;9.50;;;;;;;29.36;67.15;99060.85;136015;1254;24200;-71
2023/07/17 09:06:28;;;;;;;24.60;10.70;;;;;;;29.35;67.12;99069.50;136051;1275;22521;-73
2023/07/17 09:09:31;;;;;;;20.80;7.40;;;;;;;29.28;67.20;99068.02;135987;1275;22515;-71
2023/07/17 09:12:33;;;;;;;20.30;7.40;;;;;;;29.12;67.84;99068.06;136073;1275;25402;-72
2023/07/17 09:15:38;;;;;;;21.90;9.10;;;;;;;29.09;68.32;99068.79;136050;1275;22534;-68
2023/07/17 09:18:41;;;;;;;20.10;7.60;;;;;;;29.14;68.63;99074.43;136058;1275;23673;-72
2023/07/17 09:21:44;;;;;;;19.20;6.80;;;;;;;29.36;67.25;99071.11;136088;1275;22671;-71
2023/07/17 09:24:46;;;;;;;19.80;7.20;;;;;;;29.42;66.70;99072.15;135892;1275;22534;-71
2023/07/17 09:27:49;;;;;;;19.70;6.30;;;;;;;29.29;66.08;99073.75;136000;1275;22524;-68
2023/07/17 09:30:52;;;;;;;19.00;7.70;;;;;;;29.19;66.35;99083.77;136058;1256;22517;-69
2023/07/17 09:33:54;;;;;;;21.60;6.80;;;;;;;29.32;65.60;99080.42;136071;1276;22527;-71
2023/07/17 09:36:57;;;;;;;20.60;7.80;;;;;;;29.37;66.67;99069.42;136052;1275;22523;-76
2023/07/17 09:40:00;;;;;;;25.80;10.20;;;;;;;29.68;65.34;99067.31;136106;1275;22527;-70
2023/07/17 09:43:03;;;;;;;23.10;10.50;;;;;;;29.43;66.24;99069.48;136080;1275;23919;-72
2023/07/17 09:46:06;;;;;;;27.70;13.30;;;;;;;29.59;64.28;99067.25;136016;1275;22629;-70
2023/07/17 09:49:08;;;;;;;20.80;8.30;;;;;;;29.31;65.71;99061.23;136018;1275;22527;-73
2023/07/17 09:52:11;;;;;;;22.40;9.70;;;;;;;29.35;65.45;99063.55;136087;1275;22516;-74
2023/07/17 09:55:14;;;;;;;18.00;6.10;;;;;;;29.73;63.66;99061.15;135945;1275;25439;-72
2023/07/17 09:58:17;;;;;;;16.60;5.60;;;;;;;30.02;61.18;99059.20;136019;1275;22630;-71
2023/07/17 10:01:20;;;;;;;19.00;6.40;;;;;;;30.32;60.01;99060.55;136087;1275;22542;-73
2023/07/17 10:04:24;;;;;;;20.50;6.40;;;;;;;30.13;59.36;99066.94;136109;1275;22527;-76
2023/07/17 10:07:29;;;;;;;19.90;6.60;;;;;;;30.01;58.78;99068.55;135938;1266;22509;-74
2023/07/17 10:10:33;;;;;;;17.20;6.40;;;;;;;29.84;60.05;99071.23;136093;1275;22534;-73
2023/07/17 10:13:35;;;;;;;20.00;6.20;;;;;;;29.14;63.88;99080.75;136074;1275;22527;-73
2023/07/17 10:16:38;;;;;;;18.30;6.70;;;;;;;29.21;64.49;99073.27;136078;1276;22529;-73
2023/07/17 10:19:43;;;;;;;19.70;6.70;;;;;;;29.45;64.39;99064.95;135919;1275;22656;-71
2023/07/17 10:22:48;;;;;;;15.30;5.80;;;;;;;29.64;62.31;99074.72;136096;1266;22569;-74
2023/07/17 10:25:51;;;;;;;18.30;6.40;;;;;;;29.52;62.73;99067.73;136061;1276;22542;-71
2023/07/17 10:28:54;;;;;;;19.10;6.90;;;;;;;29.39;62.25;99069.33;136005;1276;22510;-74
2023/07/17 10:31:58;;;;;;;19.90;6.60;;;;;;;29.48;63.44;99064.04;136066;1276;22530;-66
2023/07/17 10:35:00;;;;;;;19.80;6.90;;;;;;;29.74;63.20;99053.83;136099;1276;22545;-66
2023/07/17 10:38:03;;;;;;;18.70;6.80;;;;;;;29.92;62.65;99047.80;136062;1275;22675;-68
2023/07/17 10:41:07;;;;;;;21.30;6.80;;;;;;;29.88;61.01;99041.70;136073;1275;22534;-69
2023/07/17 10:44:10;;;;;;;18.80;6.40;;;;;;;29.77;60.79;99037.94;135977;1276;22657;-75
2023/07/17 10:47:14;;;;;;;17.70;6.40;;;;;;;29.88;61.48;99038.40;136070;1275;22540;-73
2023/07/17 10:50:18;;;;;;;18.30;6.60;;;;;;;30.19;60.31;99039.35;135980;1275;22531;-66
2023/07/17 10:53:22;;;;;;;20.60;7.90;;;;;;;29.92;60.23;99035.48;136106;1275;22548;-68
2023/07/17 10:56:25;;;;;;;21.10;8.20;;;;;;;29.79;61.89;99035.27;136123;1275;22523;-77
2023/07/17 10:59:30;;;;;;;22.20;7.70;;;;;;;29.69;62.07;99042.02;136098;1275;22530;-73
2023/07/17 11:02:34;;;;;;;19.20;6.80;;;;;;;29.51;62.57;99040.95;136006;1275;22543;-78
2023/07/17 11:05:39;;;;;;;18.40;7.00;;;;;;;29.46;62.99;99036.65;136146;1275;22524;-70
2023/07/17 11:08:44;;;;;;;18.00;7.20;;;;;;;29.53;61.74;99040.86;136162;1275;22527;-75
2023/07/17 11:12:02;;;;;;;19.50;7.70;;;;;;;29.59;61.71;99039.27;136084;1275;22525;-71
2023/07/17 11:15:06;;;;;;;19.90;7.40;;;;;;;29.82;62.44;99044.16;136171;1275;22558;-65
2023/07/17 11:18:09;;;;;;;20.10;7.30;;;;;;;29.95;62.07;99043.59;136147;1274;22520;-67
2023/07/17 11:21:13;;;;;;;18.20;6.60;;;;;;;29.97;61.35;99044.00;136100;1274;22586;-66
2023/07/17 11:24:20;;;;;;;19.40;6.90;;;;;;;29.91;61.01;99048.25;136048;1274;22546;-66
2023/07/17 11:27:24;;;;;;;19.40;7.20;;;;;;;29.94;60.57;99051.87;136133;1274;22543;-66
2023/07/17 11:30:27;;;;;;;20.40;7.70;;;;;;;29.42;63.01;99052.77;136090;1274;22538;-69
2023/07/17 11:33:31;;;;;;;19.40;7.20;;;;;;;29.22;64.55;99047.06;136087;1274;22526;-70
2023/07/17 11:36:35;;;;;;;18.90;7.30;;;;;;;29.08;64.01;99037.63;136146;1275;22616;-76
2023/07/17 11:39:39;;;;;;;20.90;6.90;;;;;;;29.27;63.72;99034.94;136147;1275;22548;-70
2023/07/17 11:42:44;;;;;;;19.00;7.00;;;;;;;29.45;63.24;99046.08;136002;1272;22576;-68
2023/07/17 11:45:48;;;;;;;20.60;7.10;;;;;;;29.51;63.38;99050.60;135971;1273;22544;-68
2023/07/17 11:48:52;;;;;;;20.40;7.90;;;;;;;29.48;63.79;99049.98;136087;1267;22522;-68
2023/07/17 11:51:56;;;;;;;19.90;8.00;;;;;;;29.66;63.09;99047.33;136045;1275;22561;-67
2023/07/17 11:55:00;;;;;;;20.60;8.00;;;;;;;29.56;63.58;99046.48;136171;1274;22583;-66
2023/07/17 11:58:04;;;;;;;19.20;7.80;;;;;;;29.46;64.39;99041.17;136020;1272;25089;-67
2023/07/17 12:01:08;;;;;;;19.20;7.00;;;;;;;29.41;64.77;99044.52;136146;1275;22520;-67
2023/07/17 12:04:12;;;;;;;20.80;7.80;;;;;;;29.34;64.95;99055.24;136065;1270;22530;-72
2023/07/17 12:07:16;;;;;;;18.80;7.30;;;;;;;29.44;65.25;99065.48;135897;1273;23153;-71
2023/07/17 12:10:20;;;;;;;19.80;7.50;;;;;;;29.44;64.66;99061.06;136039;1275;22535;-72
2023/07/17 12:13:24;;;;;;;19.60;7.40;;;;;;;29.42;65.09;99061.09;136105;1275;22561;-74
2023/07/17 12:16:28;;;;;;;21.40;8.00;;;;;;;29.39;64.58;99061.20;136184;1275;22538;-73
2023/07/17 12:19:32;;;;;;;21.60;8.10;;;;;;;29.53;63.60;99057.23;136029;1275;22636;-72
2023/07/17 12:22:36;;;;;;;19.50;7.60;;;;;;;29.53;63.83;99057.70;136066;1275;25424;-71
2023/07/17 12:25:41;;;;;;;26.70;8.00;;;;;;;29.49;64.40;99058.04;135865;1275;23643;-66
2023/07/17 12:28:46;;;;;;;22.00;8.10;;;;;;;29.36;65.27;99061.27;135953;1275;22528;-65
2023/07/17 12:31:50;;;;;;;18.70;7.50;;;;;;;29.29;65.87;99052.58;136236;1275;22534;-66
2023/07/17 12:34:53;;;;;;;20.90;7.80;;;;;;;29.22;66.35;99049.22;136016;1275;24199;-69
2023/07/17 12:37:56;;;;;;;21.80;8.00;;;;;;;29.15;67.80;99047.80;136047;1275;22530;-67
2023/07/17 12:41:00;;;;;;;20.30;7.50;;;;;;;29.19;68.78;99048.01;136044;1275;22990;-66
2023/07/17 12:44:04;;;;;;;23.00;8.60;;;;;;;29.11;69.13;99031.07;135812;1275;22545;-66
2023/07/17 12:47:07;;;;;;;23.50;8.50;;;;;;;29.10;70.11;99022.30;135915;1275;22541;-69
2023/07/17 12:50:11;;;;;;;24.10;9.00;;;;;;;28.98;70.42;99011.97;135915;1275;22963;-69
2023/07/17 12:53:17;;;;;;;22.50;9.30;;;;;;;28.94;71.18;99003.55;135915;1275;22520;-73
2023/07/17 12:56:24;;;;;;;20.50;8.20;;;;;;;29.13;70.22;98997.58;136126;1275;22529;-73
2023/07/17 12:59:27;;;;;;;21.20;8.30;;;;;;;29.62;67.40;98992.13;136089;1275;22549;-70
2023/07/17 13:02:32;;;;;;;22.40;9.30;;;;;;;29.69;67.96;98993.67;136075;1275;22520;-76
2023/07/17 13:05:36;;;;;;;20.70;8.20;;;;;;;29.58;69.17;98995.00;136129;1275;22516;-76
2023/07/17 13:08:40;;;;;;;21.30;9.10;;;;;;;29.65;69.91;99009.16;136153;1275;22530;-66
2023/07/17 13:11:43;;;;;;;24.10;10.40;;;;;;;29.62;70.20;99014.66;136114;1275;22524;-73
2023/07/17 13:14:47;;;;;;;30.30;15.90;;;;;;;29.61;69.90;99007.45;136121;1275;22535;-76
2023/07/17 13:17:50;;;;;;;23.20;8.90;;;;;;;29.61;70.36;98993.45;136083;1275;22537;-71
2023/07/17 13:20:54;;;;;;;21.70;8.40;;;;;;;29.63;70.16;98982.77;136131;1275;22527;-72
2023/07/17 13:23:57;;;;;;;20.50;7.80;;;;;;;29.73;69.85;98981.35;135992;1257;22608;-74
2023/07/17 13:27:01;;;;;;;23.90;10.20;;;;;;;29.61;70.05;98982.98;136109;1275;22509;-68
2023/07/17 13:30:04;;;;;;;22.60;11.00;;;;;;;29.58;70.42;98976.84;136130;1275;22519;-69
2023/07/17 13:33:08;;;;;;;20.50;8.30;;;;;;;29.80;68.99;98973.35;136115;1275;22543;-68
2023/07/17 13:36:11;;;;;;;21.80;8.50;;;;;;;29.86;69.01;98972.55;136132;1275;22516;-67
2023/07/17 13:39:18;;;;;;;20.80;7.80;;;;;;;29.77;68.80;98979.02;136140;1275;22539;-74
2023/07/17 13:42:21;;;;;;;20.00;8.30;;;;;;;29.80;68.72;98990.02;136117;1275;22519;-66
2023/07/17 13:45:23;;;;;;;25.90;8.30;;;;;;;30.10;66.55;98992.35;136120;1275;25464;-66
2023/07/17 13:48:27;;;;;;;20.10;7.80;;;;;;;30.22;66.54;99004.48;136164;1275;22548;-76
2023/07/17 13:51:29;;;;;;;22.30;7.90;;;;;;;30.42;65.74;99015.39;136096;1275;22522;-70
2023/07/17 13:54:33;;;;;;;21.40;8.00;;;;;;;30.12;66.90;99029.44;136125;1275;22568;-74
2023/07/17 13:57:36;;;;;;;21.60;9.50;;;;;;;29.77;69.12;99035.34;136001;1275;22531;-76
2023/07/17 14:00:41;;;;;;;23.40;10.90;;;;;;;29.79;69.42;99027.57;136129;1275;22559;-75